sensor_id;sensor_type;location;lat;lon;timestamp;P1;durP1;ratioP1;P2;durP2;ratioP2
34573;SDS011;20809;49.594;8.734;2022-12-18T00:01:20;72.00;;;29.17;;
34573;SDS011;20809;49.594;8.734;2022-12-18T00:04:26;72.23;;;31.33;;
34573;SDS011;20809;49.594;8.734;2022-12-18T00:07:27;61.97;;;28.00;;
34573;SDS011;20809;49.594;8.734;2022-12-18T00:10:28;69.40;;;29.97;;
34573;SDS011;20809;49.594;8.734;2022-12-18T00:13:29;72.10;;;29.20;;
34573;SDS011;20809;49.594;8.734;2022-12-18T00:16:29;69.00;;;29.33;;
34573;SDS011;20809;49.594;8.734;2022-12-18T00:19:35;72.13;;;29.00;;
34573;SDS011;20809;49.594;8.734;2022-12-18T00:22:36;67.03;;;28.57;;
34573;SDS011;20809;49.594;8.734;2022-12-18T00:25:36;64.77;;;28.50;;
34573;SDS011;20809;49.594;8.734;2022-12-18T00:28:37;78.73;;;29.77;;
34573;SDS011;20809;49.594;8.734;2022-12-18T00:31:38;65.20;;;29.10;;
34573;SDS011;20809;49.594;8.734;2022-12-18T00:34:39;71.23;;;30.17;;
34573;SDS011;20809;49.594;8.734;2022-12-18T00:37:40;76.93;;;29.60;;
34573;SDS011;20809;49.594;8.734;2022-12-18T00:40:40;82.00;;;32.77;;
34573;SDS011;20809;49.594;8.734;2022-12-18T00:43:41;70.17;;;30.87;;
34573;SDS011;20809;49.594;8.734;2022-12-18T00:46:42;77.17;;;32.50;;
34573;SDS011;20809;49.594;8.734;2022-12-18T00:49:45;82.40;;;33.23;;
34573;SDS011;20809;49.594;8.734;2022-12-18T00:52:45;79.67;;;33.33;;
34573;SDS011;20809;49.594;8.734;2022-12-18T00:55:46;77.80;;;31.03;;
34573;SDS011;20809;49.594;8.734;2022-12-18T00:58:47;74.53;;;32.80;;
34573;SDS011;20809;49.594;8.734;2022-12-18T01:01:48;66.97;;;30.33;;
34573;SDS011;20809;49.594;8.734;2022-12-18T01:04:49;72.03;;;29.90;;
34573;SDS011;20809;49.594;8.734;2022-12-18T01:07:50;73.83;;;32.17;;
34573;SDS011;20809;49.594;8.734;2022-12-18T01:10:50;81.43;;;33.17;;
34573;SDS011;20809;49.594;8.734;2022-12-18T01:13:52;74.97;;;30.73;;
34573;SDS011;20809;49.594;8.734;2022-12-18T01:16:53;75.80;;;32.77;;
34573;SDS011;20809;49.594;8.734;2022-12-18T01:19:54;73.90;;;32.17;;
34573;SDS011;20809;49.594;8.734;2022-12-18T01:22:55;79.03;;;33.50;;
34573;SDS011;20809;49.594;8.734;2022-12-18T01:25:55;84.03;;;34.97;;
34573;SDS011;20809;49.594;8.734;2022-12-18T01:28:56;77.80;;;33.53;;
34573;SDS011;20809;49.594;8.734;2022-12-18T01:31:57;76.20;;;32.57;;
34573;SDS011;20809;49.594;8.734;2022-12-18T01:34:57;85.33;;;33.97;;
34573;SDS011;20809;49.594;8.734;2022-12-18T01:37:58;76.67;;;32.77;;
34573;SDS011;20809;49.594;8.734;2022-12-18T01:40:59;77.60;;;31.47;;
34573;SDS011;20809;49.594;8.734;2022-12-18T01:44:01;85.63;;;32.67;;
34573;SDS011;20809;49.594;8.734;2022-12-18T01:47:01;84.77;;;32.17;;
34573;SDS011;20809;49.594;8.734;2022-12-18T01:50:04;71.23;;;30.47;;
34573;SDS011;20809;49.594;8.734;2022-12-18T01:53:21;67.50;;;28.60;;
34573;SDS011;20809;49.594;8.734;2022-12-18T02:10:22;87.18;;;36.03;;
34573;SDS011;20809;49.594;8.734;2022-12-18T02:13:40;80.30;;;33.07;;
34573;SDS011;20809;49.594;8.734;2022-12-18T02:23:24;74.33;;;30.17;;
34573;SDS011;20809;49.594;8.734;2022-12-18T02:26:33;77.30;;;30.03;;
34573;SDS011;20809;49.594;8.734;2022-12-18T02:32:50;71.23;;;30.60;;
34573;SDS011;20809;49.594;8.734;2022-12-18T02:35:53;72.57;;;29.93;;
34573;SDS011;20809;49.594;8.734;2022-12-18T02:38:56;68.63;;;29.80;;
34573;SDS011;20809;49.594;8.734;2022-12-18T02:41:59;71.63;;;30.07;;
34573;SDS011;20809;49.594;8.734;2022-12-18T02:45:07;75.27;;;28.67;;
34573;SDS011;20809;49.594;8.734;2022-12-18T02:48:08;75.00;;;30.17;;
34573;SDS011;20809;49.594;8.734;2022-12-18T02:51:16;70.30;;;28.10;;
34573;SDS011;20809;49.594;8.734;2022-12-18T03:00:41;65.73;;;29.70;;
34573;SDS011;20809;49.594;8.734;2022-12-18T03:04:06;72.07;;;29.10;;
34573;SDS011;20809;49.594;8.734;2022-12-18T03:07:37;64.67;;;26.27;;
34573;SDS011;20809;49.594;8.734;2022-12-18T03:11:17;68.80;;;29.13;;
34573;SDS011;20809;49.594;8.734;2022-12-18T03:14:12;74.20;;;29.07;;
34573;SDS011;20809;49.594;8.734;2022-12-18T03:17:16;73.13;;;29.00;;
34573;SDS011;20809;49.594;8.734;2022-12-18T03:20:20;78.20;;;29.83;;
34573;SDS011;20809;49.594;8.734;2022-12-18T03:23:24;70.70;;;26.90;;
34573;SDS011;20809;49.594;8.734;2022-12-18T03:26:30;63.23;;;28.03;;
34573;SDS011;20809;49.594;8.734;2022-12-18T03:29:38;75.00;;;31.00;;
34573;SDS011;20809;49.594;8.734;2022-12-18T03:36:32;60.27;;;26.73;;
34573;SDS011;20809;49.594;8.734;2022-12-18T03:39:33;68.97;;;26.87;;
34573;SDS011;20809;49.594;8.734;2022-12-18T03:42:38;67.13;;;27.47;;
34573;SDS011;20809;49.594;8.734;2022-12-18T03:45:54;64.83;;;26.87;;
34573;SDS011;20809;49.594;8.734;2022-12-18T03:49:23;61.93;;;26.40;;
34573;SDS011;20809;49.594;8.734;2022-12-18T03:53:20;68.13;;;26.03;;
34573;SDS011;20809;49.594;8.734;2022-12-18T03:56:00;65.37;;;27.47;;
34573;SDS011;20809;49.594;8.734;2022-12-18T03:59:02;70.73;;;30.60;;
34573;SDS011;20809;49.594;8.734;2022-12-18T04:02:05;79.57;;;29.23;;
34573;SDS011;20809;49.594;8.734;2022-12-18T04:05:10;66.83;;;28.60;;
34573;SDS011;20809;49.594;8.734;2022-12-18T04:08:13;61.50;;;27.43;;
34573;SDS011;20809;49.594;8.734;2022-12-18T04:11:21;62.33;;;27.57;;
34573;SDS011;20809;49.594;8.734;2022-12-18T04:14:22;62.33;;;26.93;;
34573;SDS011;20809;49.594;8.734;2022-12-18T04:17:23;62.53;;;27.27;;
34573;SDS011;20809;49.594;8.734;2022-12-18T04:20:24;71.00;;;28.17;;
34573;SDS011;20809;49.594;8.734;2022-12-18T04:23:24;64.07;;;27.07;;
34573;SDS011;20809;49.594;8.734;2022-12-18T04:26:25;69.13;;;28.20;;
34573;SDS011;20809;49.594;8.734;2022-12-18T04:29:26;62.00;;;26.10;;
34573;SDS011;20809;49.594;8.734;2022-12-18T04:32:29;65.93;;;26.83;;
34573;SDS011;20809;49.594;8.734;2022-12-18T04:35:30;65.30;;;27.87;;
34573;SDS011;20809;49.594;8.734;2022-12-18T04:38:31;55.50;;;24.37;;
34573;SDS011;20809;49.594;8.734;2022-12-18T04:41:32;67.87;;;26.00;;
34573;SDS011;20809;49.594;8.734;2022-12-18T04:44:33;71.87;;;26.07;;
34573;SDS011;20809;49.594;8.734;2022-12-18T04:47:34;68.87;;;25.40;;
34573;SDS011;20809;49.594;8.734;2022-12-18T04:50:35;55.63;;;24.27;;
34573;SDS011;20809;49.594;8.734;2022-12-18T04:53:35;62.30;;;26.70;;
34573;SDS011;20809;49.594;8.734;2022-12-18T04:56:36;65.60;;;26.23;;
34573;SDS011;20809;49.594;8.734;2022-12-18T04:59:37;63.90;;;25.37;;
34573;SDS011;20809;49.594;8.734;2022-12-18T05:02:38;61.10;;;25.47;;
34573;SDS011;20809;49.594;8.734;2022-12-18T05:05:39;58.07;;;24.50;;
34573;SDS011;20809;49.594;8.734;2022-12-18T05:08:40;56.63;;;23.17;;
34573;SDS011;20809;49.594;8.734;2022-12-18T05:11:41;62.20;;;23.97;;
34573;SDS011;20809;49.594;8.734;2022-12-18T05:14:42;66.10;;;24.57;;
34573;SDS011;20809;49.594;8.734;2022-12-18T05:17:43;55.20;;;23.17;;
34573;SDS011;20809;49.594;8.734;2022-12-18T05:20:44;61.77;;;25.10;;
34573;SDS011;20809;49.594;8.734;2022-12-18T05:23:51;59.70;;;24.27;;
34573;SDS011;20809;49.594;8.734;2022-12-18T05:26:53;54.77;;;23.30;;
34573;SDS011;20809;49.594;8.734;2022-12-18T05:29:59;57.90;;;23.73;;
34573;SDS011;20809;49.594;8.734;2022-12-18T05:33:00;56.43;;;21.70;;
34573;SDS011;20809;49.594;8.734;2022-12-18T05:36:02;59.33;;;23.70;;
34573;SDS011;20809;49.594;8.734;2022-12-18T05:39:04;54.17;;;24.10;;
34573;SDS011;20809;49.594;8.734;2022-12-18T05:42:05;50.83;;;21.30;;
34573;SDS011;20809;49.594;8.734;2022-12-18T05:45:06;54.30;;;20.97;;
34573;SDS011;20809;49.594;8.734;2022-12-18T05:54:48;58.50;;;21.83;;
34573;SDS011;20809;49.594;8.734;2022-12-18T05:57:49;50.83;;;22.73;;
34573;SDS011;20809;49.594;8.734;2022-12-18T06:00:50;51.13;;;19.80;;
34573;SDS011;20809;49.594;8.734;2022-12-18T06:03:51;49.87;;;21.40;;
34573;SDS011;20809;49.594;8.734;2022-12-18T06:06:55;48.47;;;21.47;;
34573;SDS011;20809;49.594;8.734;2022-12-18T06:09:56;56.00;;;22.20;;
34573;SDS011;20809;49.594;8.734;2022-12-18T06:12:59;49.77;;;21.43;;
34573;SDS011;20809;49.594;8.734;2022-12-18T06:16:04;55.43;;;20.70;;
34573;SDS011;20809;49.594;8.734;2022-12-18T06:19:06;52.47;;;21.83;;
34573;SDS011;20809;49.594;8.734;2022-12-18T06:22:07;46.27;;;19.77;;
34573;SDS011;20809;49.594;8.734;2022-12-18T06:25:08;41.30;;;18.33;;
34573;SDS011;20809;49.594;8.734;2022-12-18T06:28:09;55.10;;;22.47;;
34573;SDS011;20809;49.594;8.734;2022-12-18T06:31:10;55.40;;;21.07;;
34573;SDS011;20809;49.594;8.734;2022-12-18T06:34:12;48.50;;;22.13;;
34573;SDS011;20809;49.594;8.734;2022-12-18T06:37:12;47.53;;;20.90;;
34573;SDS011;20809;49.594;8.734;2022-12-18T06:40:14;48.53;;;20.67;;
34573;SDS011;20809;49.594;8.734;2022-12-18T06:43:15;56.87;;;20.43;;
34573;SDS011;20809;49.594;8.734;2022-12-18T06:46:16;55.17;;;22.73;;
34573;SDS011;20809;49.594;8.734;2022-12-18T06:49:19;46.77;;;20.80;;
34573;SDS011;20809;49.594;8.734;2022-12-18T06:56:06;63.27;;;21.67;;
34573;SDS011;20809;49.594;8.734;2022-12-18T06:59:11;47.83;;;20.30;;
34573;SDS011;20809;49.594;8.734;2022-12-18T07:02:16;52.83;;;19.97;;
34573;SDS011;20809;49.594;8.734;2022-12-18T07:05:17;47.33;;;19.60;;
34573;SDS011;20809;49.594;8.734;2022-12-18T07:08:21;45.37;;;19.27;;
34573;SDS011;20809;49.594;8.734;2022-12-18T07:11:22;46.70;;;20.80;;
34573;SDS011;20809;49.594;8.734;2022-12-18T07:14:24;45.93;;;19.27;;
34573;SDS011;20809;49.594;8.734;2022-12-18T07:17:25;53.37;;;20.80;;
34573;SDS011;20809;49.594;8.734;2022-12-18T07:20:28;53.17;;;20.17;;
34573;SDS011;20809;49.594;8.734;2022-12-18T07:23:29;55.83;;;20.80;;
34573;SDS011;20809;49.594;8.734;2022-12-18T07:26:32;48.60;;;19.40;;
34573;SDS011;20809;49.594;8.734;2022-12-18T07:29:39;46.20;;;20.40;;
34573;SDS011;20809;49.594;8.734;2022-12-18T07:32:43;44.60;;;16.90;;
34573;SDS011;20809;49.594;8.734;2022-12-18T07:36:16;44.27;;;18.07;;
34573;SDS011;20809;49.594;8.734;2022-12-18T07:39:19;48.33;;;18.40;;
34573;SDS011;20809;49.594;8.734;2022-12-18T07:42:21;52.73;;;19.50;;
34573;SDS011;20809;49.594;8.734;2022-12-18T07:45:31;50.38;;;23.60;;
34573;SDS011;20809;49.594;8.734;2022-12-18T07:48:32;61.80;;;24.87;;
34573;SDS011;20809;49.594;8.734;2022-12-18T07:51:37;65.77;;;27.77;;
34573;SDS011;20809;49.594;8.734;2022-12-18T07:54:38;74.73;;;31.67;;
34573;SDS011;20809;49.594;8.734;2022-12-18T07:57:42;80.33;;;34.77;;
34573;SDS011;20809;49.594;8.734;2022-12-18T08:00:43;83.43;;;33.87;;
34573;SDS011;20809;49.594;8.734;2022-12-18T08:03:47;89.73;;;33.53;;
34573;SDS011;20809;49.594;8.734;2022-12-18T08:06:49;65.87;;;30.60;;
34573;SDS011;20809;49.594;8.734;2022-12-18T08:14:13;68.30;;;29.83;;
34573;SDS011;20809;49.594;8.734;2022-12-18T08:17:16;70.13;;;27.43;;
34573;SDS011;20809;49.594;8.734;2022-12-18T08:20:21;60.43;;;26.70;;
34573;SDS011;20809;49.594;8.734;2022-12-18T08:23:25;67.10;;;25.17;;
34573;SDS011;20809;49.594;8.734;2022-12-18T08:26:29;48.27;;;20.70;;
34573;SDS011;20809;49.594;8.734;2022-12-18T08:29:34;54.43;;;23.07;;
34573;SDS011;20809;49.594;8.734;2022-12-18T08:32:35;57.27;;;23.13;;
34573;SDS011;20809;49.594;8.734;2022-12-18T08:35:37;55.43;;;22.77;;
34573;SDS011;20809;49.594;8.734;2022-12-18T08:38:53;59.77;;;22.03;;
34573;SDS011;20809;49.594;8.734;2022-12-18T08:41:56;57.73;;;24.43;;
34573;SDS011;20809;49.594;8.734;2022-12-18T08:45:16;66.03;;;27.50;;
34573;SDS011;20809;49.594;8.734;2022-12-18T08:48:20;63.07;;;25.00;;
34573;SDS011;20809;49.594;8.734;2022-12-18T08:51:21;60.37;;;25.93;;
34573;SDS011;20809;49.594;8.734;2022-12-18T08:54:27;63.77;;;26.40;;
34573;SDS011;20809;49.594;8.734;2022-12-18T08:57:29;66.03;;;27.47;;
34573;SDS011;20809;49.594;8.734;2022-12-18T09:00:29;78.20;;;30.17;;
34573;SDS011;20809;49.594;8.734;2022-12-18T09:03:33;68.93;;;32.42;;
34573;SDS011;20809;49.594;8.734;2022-12-18T09:06:34;63.13;;;29.02;;
34573;SDS011;20809;49.594;8.734;2022-12-18T09:09:42;58.45;;;26.65;;
34573;SDS011;20809;49.594;8.734;2022-12-18T09:12:44;59.45;;;25.40;;
34573;SDS011;20809;49.594;8.734;2022-12-18T09:15:49;57.05;;;25.45;;
34573;SDS011;20809;49.594;8.734;2022-12-18T09:18:57;62.88;;;28.83;;
34573;SDS011;20809;49.594;8.734;2022-12-18T09:22:03;75.63;;;30.10;;
34573;SDS011;20809;49.594;8.734;2022-12-18T09:25:04;65.07;;;27.55;;
34573;SDS011;20809;49.594;8.734;2022-12-18T09:28:16;65.78;;;29.65;;
34573;SDS011;20809;49.594;8.734;2022-12-18T09:31:21;66.10;;;29.85;;
34573;SDS011;20809;49.594;8.734;2022-12-18T09:34:24;69.35;;;31.75;;
34573;SDS011;20809;49.594;8.734;2022-12-18T09:37:36;68.18;;;31.35;;
34573;SDS011;20809;49.594;8.734;2022-12-18T09:40:41;72.35;;;31.08;;
34573;SDS011;20809;49.594;8.734;2022-12-18T09:43:51;75.63;;;30.40;;
34573;SDS011;20809;49.594;8.734;2022-12-18T09:50:01;52.80;;;22.98;;
34573;SDS011;20809;49.594;8.734;2022-12-18T09:53:06;48.72;;;21.63;;
34573;SDS011;20809;49.594;8.734;2022-12-18T09:56:16;49.55;;;22.70;;
34573;SDS011;20809;49.594;8.734;2022-12-18T09:59:21;61.17;;;25.15;;
34573;SDS011;20809;49.594;8.734;2022-12-18T10:02:43;69.95;;;30.30;;
34573;SDS011;20809;49.594;8.734;2022-12-18T10:09:28;57.35;;;27.63;;
34573;SDS011;20809;49.594;8.734;2022-12-18T10:12:56;60.35;;;26.15;;
34573;SDS011;20809;49.594;8.734;2022-12-18T10:16:29;50.60;;;24.35;;
34573;SDS011;20809;49.594;8.734;2022-12-18T10:19:36;58.72;;;25.75;;
34573;SDS011;20809;49.594;8.734;2022-12-18T10:26:09;51.08;;;25.70;;
34573;SDS011;20809;49.594;8.734;2022-12-18T10:29:11;55.33;;;27.02;;
34573;SDS011;20809;49.594;8.734;2022-12-18T10:32:17;113.32;;;49.03;;
34573;SDS011;20809;49.594;8.734;2022-12-18T10:39:18;50.85;;;27.05;;
34573;SDS011;20809;49.594;8.734;2022-12-18T10:42:23;54.65;;;24.45;;
34573;SDS011;20809;49.594;8.734;2022-12-18T10:45:24;72.13;;;28.60;;
34573;SDS011;20809;49.594;8.734;2022-12-18T10:48:25;82.95;;;34.78;;
34573;SDS011;20809;49.594;8.734;2022-12-18T10:51:31;63.47;;;28.45;;
34573;SDS011;20809;49.594;8.734;2022-12-18T10:54:34;45.72;;;22.48;;
34573;SDS011;20809;49.594;8.734;2022-12-18T10:57:37;55.05;;;22.02;;
34573;SDS011;20809;49.594;8.734;2022-12-18T11:00:40;44.50;;;21.08;;
34573;SDS011;20809;49.594;8.734;2022-12-18T11:03:45;66.50;;;21.73;;
34573;SDS011;20809;49.594;8.734;2022-12-18T11:10:00;44.72;;;22.15;;
34573;SDS011;20809;49.594;8.734;2022-12-18T11:13:17;44.85;;;23.52;;
34573;SDS011;20809;49.594;8.734;2022-12-18T11:16:20;45.42;;;21.98;;
34573;SDS011;20809;49.594;8.734;2022-12-18T11:22:29;44.95;;;20.60;;
34573;SDS011;20809;49.594;8.734;2022-12-18T11:25:33;44.38;;;21.23;;
34573;SDS011;20809;49.594;8.734;2022-12-18T11:31:47;38.15;;;17.90;;
34573;SDS011;20809;49.594;8.734;2022-12-18T11:34:49;42.33;;;19.55;;
34573;SDS011;20809;49.594;8.734;2022-12-18T11:37:59;35.67;;;16.30;;
34573;SDS011;20809;49.594;8.734;2022-12-18T11:44:53;60.83;;;28.65;;
34573;SDS011;20809;49.594;8.734;2022-12-18T11:48:04;43.30;;;20.42;;
34573;SDS011;20809;49.594;8.734;2022-12-18T11:54:52;39.53;;;16.90;;
34573;SDS011;20809;49.594;8.734;2022-12-18T12:05:03;33.33;;;15.88;;
34573;SDS011;20809;49.594;8.734;2022-12-18T12:31:57;36.55;;;17.67;;
34573;SDS011;20809;49.594;8.734;2022-12-18T12:35:21;31.70;;;16.40;;
34573;SDS011;20809;49.594;8.734;2022-12-18T12:38:33;35.58;;;16.70;;
34573;SDS011;20809;49.594;8.734;2022-12-18T12:45:13;41.58;;;20.25;;
34573;SDS011;20809;49.594;8.734;2022-12-18T12:51:53;33.58;;;15.27;;
34573;SDS011;20809;49.594;8.734;2022-12-18T12:55:16;33.35;;;15.45;;
34573;SDS011;20809;49.594;8.734;2022-12-18T13:01:36;35.30;;;17.43;;
34573;SDS011;20809;49.594;8.734;2022-12-18T13:04:52;33.55;;;17.00;;
34573;SDS011;20809;49.594;8.734;2022-12-18T13:08:10;31.33;;;14.73;;
34573;SDS011;20809;49.594;8.734;2022-12-18T13:11:15;37.80;;;16.25;;
34573;SDS011;20809;49.594;8.734;2022-12-18T13:14:55;36.67;;;15.82;;
34573;SDS011;20809;49.594;8.734;2022-12-18T13:18:34;33.58;;;15.68;;
34573;SDS011;20809;49.594;8.734;2022-12-18T13:21:36;35.00;;;15.48;;
34573;SDS011;20809;49.594;8.734;2022-12-18T13:24:39;37.00;;;16.92;;
34573;SDS011;20809;49.594;8.734;2022-12-18T13:30:48;39.33;;;16.77;;
34573;SDS011;20809;49.594;8.734;2022-12-18T13:37:44;38.92;;;17.13;;
34573;SDS011;20809;49.594;8.734;2022-12-18T13:40:55;36.90;;;16.98;;
34573;SDS011;20809;49.594;8.734;2022-12-18T13:44:12;37.72;;;15.95;;
34573;SDS011;20809;49.594;8.734;2022-12-18T13:47:25;35.50;;;16.23;;
34573;SDS011;20809;49.594;8.734;2022-12-18T13:50:40;36.50;;;16.65;;
34573;SDS011;20809;49.594;8.734;2022-12-18T13:53:48;35.40;;;16.02;;
34573;SDS011;20809;49.594;8.734;2022-12-18T13:56:53;37.97;;;15.95;;
34573;SDS011;20809;49.594;8.734;2022-12-18T13:59:54;36.72;;;17.55;;
34573;SDS011;20809;49.594;8.734;2022-12-18T14:02:56;37.10;;;16.30;;
34573;SDS011;20809;49.594;8.734;2022-12-18T14:06:03;39.00;;;15.75;;
34573;SDS011;20809;49.594;8.734;2022-12-18T14:09:08;41.33;;;17.45;;
34573;SDS011;20809;49.594;8.734;2022-12-18T14:12:29;37.83;;;15.50;;
34573;SDS011;20809;49.594;8.734;2022-12-18T14:15:51;40.58;;;16.52;;
34573;SDS011;20809;49.594;8.734;2022-12-18T14:18:56;39.50;;;16.70;;
34573;SDS011;20809;49.594;8.734;2022-12-18T14:22:04;37.05;;;16.60;;
34573;SDS011;20809;49.594;8.734;2022-12-18T14:25:10;36.03;;;16.30;;
34573;SDS011;20809;49.594;8.734;2022-12-18T14:28:21;40.67;;;16.23;;
34573;SDS011;20809;49.594;8.734;2022-12-18T14:31:25;37.17;;;16.05;;
34573;SDS011;20809;49.594;8.734;2022-12-18T14:34:30;44.53;;;19.05;;
34573;SDS011;20809;49.594;8.734;2022-12-18T14:37:31;36.15;;;16.92;;
34573;SDS011;20809;49.594;8.734;2022-12-18T14:40:32;39.72;;;16.55;;
34573;SDS011;20809;49.594;8.734;2022-12-18T14:43:34;39.17;;;16.55;;
34573;SDS011;20809;49.594;8.734;2022-12-18T14:46:38;33.50;;;15.82;;
34573;SDS011;20809;49.594;8.734;2022-12-18T14:49:43;37.58;;;15.82;;
34573;SDS011;20809;49.594;8.734;2022-12-18T14:52:44;34.35;;;16.65;;
34573;SDS011;20809;49.594;8.734;2022-12-18T14:55:46;40.72;;;17.45;;
34573;SDS011;20809;49.594;8.734;2022-12-18T14:58:49;41.17;;;16.05;;
34573;SDS011;20809;49.594;8.734;2022-12-18T15:02:01;35.72;;;15.75;;
34573;SDS011;20809;49.594;8.734;2022-12-18T15:08:27;43.58;;;17.58;;
34573;SDS011;20809;49.594;8.734;2022-12-18T15:14:40;38.83;;;16.45;;
34573;SDS011;20809;49.594;8.734;2022-12-18T15:17:41;43.10;;;17.13;;
34573;SDS011;20809;49.594;8.734;2022-12-18T15:26:44;43.60;;;17.73;;
34573;SDS011;20809;49.594;8.734;2022-12-18T15:29:58;47.10;;;18.48;;
34573;SDS011;20809;49.594;8.734;2022-12-18T15:33:18;50.47;;;20.40;;
34573;SDS011;20809;49.594;8.734;2022-12-18T15:36:24;37.45;;;16.33;;
34573;SDS011;20809;49.594;8.734;2022-12-18T15:39:29;35.78;;;15.30;;
34573;SDS011;20809;49.594;8.734;2022-12-18T15:42:30;44.35;;;17.58;;
34573;SDS011;20809;49.594;8.734;2022-12-18T15:45:49;44.67;;;17.85;;
34573;SDS011;20809;49.594;8.734;2022-12-18T15:48:51;41.35;;;18.65;;
34573;SDS011;20809;49.594;8.734;2022-12-18T15:51:54;44.75;;;17.35;;
34573;SDS011;20809;49.594;8.734;2022-12-18T15:54:58;41.13;;;18.13;;
34573;SDS011;20809;49.594;8.734;2022-12-18T15:58:17;44.70;;;19.42;;
34573;SDS011;20809;49.594;8.734;2022-12-18T16:01:20;45.75;;;18.48;;
34573;SDS011;20809;49.594;8.734;2022-12-18T16:04:27;39.55;;;17.98;;
34573;SDS011;20809;49.594;8.734;2022-12-18T16:07:27;44.90;;;17.35;;
34573;SDS011;20809;49.594;8.734;2022-12-18T16:10:28;40.45;;;17.90;;
34573;SDS011;20809;49.594;8.734;2022-12-18T16:13:29;42.38;;;18.55;;
34573;SDS011;20809;49.594;8.734;2022-12-18T16:16:30;41.10;;;19.30;;
34573;SDS011;20809;49.594;8.734;2022-12-18T16:19:30;40.35;;;18.13;;
34573;SDS011;20809;49.594;8.734;2022-12-18T16:22:31;43.78;;;17.92;;
34573;SDS011;20809;49.594;8.734;2022-12-18T16:25:32;50.00;;;18.38;;
34573;SDS011;20809;49.594;8.734;2022-12-18T16:28:33;45.65;;;16.55;;
34573;SDS011;20809;49.594;8.734;2022-12-18T16:31:34;48.33;;;19.23;;
34573;SDS011;20809;49.594;8.734;2022-12-18T16:34:35;38.83;;;16.85;;
34573;SDS011;20809;49.594;8.734;2022-12-18T16:37:35;42.95;;;18.02;;
34573;SDS011;20809;49.594;8.734;2022-12-18T16:40:36;42.83;;;18.05;;
34573;SDS011;20809;49.594;8.734;2022-12-18T16:43:58;42.20;;;18.27;;
34573;SDS011;20809;49.594;8.734;2022-12-18T16:46:59;47.55;;;20.83;;
34573;SDS011;20809;49.594;8.734;2022-12-18T16:50:02;42.85;;;17.85;;
34573;SDS011;20809;49.594;8.734;2022-12-18T16:53:03;44.22;;;18.08;;
34573;SDS011;20809;49.594;8.734;2022-12-18T16:56:04;41.47;;;17.63;;
34573;SDS011;20809;49.594;8.734;2022-12-18T16:59:05;46.50;;;17.63;;
34573;SDS011;20809;49.594;8.734;2022-12-18T17:02:06;78.47;;;35.00;;
34573;SDS011;20809;49.594;8.734;2022-12-18T17:05:29;41.35;;;17.45;;
34573;SDS011;20809;49.594;8.734;2022-12-18T17:08:30;38.67;;;17.15;;
34573;SDS011;20809;49.594;8.734;2022-12-18T17:14:32;51.63;;;21.08;;
34573;SDS011;20809;49.594;8.734;2022-12-18T17:20:35;40.45;;;16.67;;
34573;SDS011;20809;49.594;8.734;2022-12-18T17:23:36;39.30;;;17.23;;
34573;SDS011;20809;49.594;8.734;2022-12-18T17:26:37;39.20;;;16.60;;
34573;SDS011;20809;49.594;8.734;2022-12-18T17:29:38;41.45;;;16.95;;
34573;SDS011;20809;49.594;8.734;2022-12-18T17:32:38;41.95;;;17.17;;
34573;SDS011;20809;49.594;8.734;2022-12-18T17:35:39;42.35;;;17.92;;
34573;SDS011;20809;49.594;8.734;2022-12-18T17:38:40;45.15;;;20.38;;
34573;SDS011;20809;49.594;8.734;2022-12-18T17:41:41;38.55;;;16.05;;
34573;SDS011;20809;49.594;8.734;2022-12-18T17:44:42;40.83;;;17.98;;
34573;SDS011;20809;49.594;8.734;2022-12-18T17:47:43;42.97;;;18.80;;
34573;SDS011;20809;49.594;8.734;2022-12-18T17:50:47;42.05;;;17.70;;
34573;SDS011;20809;49.594;8.734;2022-12-18T17:53:47;39.70;;;16.38;;
34573;SDS011;20809;49.594;8.734;2022-12-18T17:56:48;38.40;;;16.10;;
34573;SDS011;20809;49.594;8.734;2022-12-18T17:59:49;38.20;;;16.23;;
34573;SDS011;20809;49.594;8.734;2022-12-18T18:02:50;41.38;;;17.10;;
34573;SDS011;20809;49.594;8.734;2022-12-18T18:05:54;37.95;;;15.05;;
34573;SDS011;20809;49.594;8.734;2022-12-18T18:08:56;42.72;;;18.40;;
34573;SDS011;20809;49.594;8.734;2022-12-18T18:11:56;38.92;;;17.13;;
34573;SDS011;20809;49.594;8.734;2022-12-18T18:15:16;37.45;;;15.77;;
34573;SDS011;20809;49.594;8.734;2022-12-18T18:18:16;36.63;;;16.52;;
34573;SDS011;20809;49.594;8.734;2022-12-18T18:21:17;40.53;;;16.83;;
34573;SDS011;20809;49.594;8.734;2022-12-18T18:24:18;44.30;;;18.15;;
34573;SDS011;20809;49.594;8.734;2022-12-18T18:27:24;38.28;;;17.55;;
34573;SDS011;20809;49.594;8.734;2022-12-18T18:30:25;41.67;;;18.33;;
34573;SDS011;20809;49.594;8.734;2022-12-18T18:33:26;37.17;;;16.77;;
34573;SDS011;20809;49.594;8.734;2022-12-18T18:36:27;34.70;;;16.00;;
34573;SDS011;20809;49.594;8.734;2022-12-18T18:39:28;41.28;;;16.38;;
34573;SDS011;20809;49.594;8.734;2022-12-18T18:48:40;48.80;;;18.80;;
34573;SDS011;20809;49.594;8.734;2022-12-18T18:51:41;40.00;;;17.75;;
34573;SDS011;20809;49.594;8.734;2022-12-18T18:54:42;39.10;;;16.80;;
34573;SDS011;20809;49.594;8.734;2022-12-18T18:57:42;38.88;;;17.58;;
34573;SDS011;20809;49.594;8.734;2022-12-18T19:00:43;43.85;;;19.27;;
34573;SDS011;20809;49.594;8.734;2022-12-18T19:03:44;43.03;;;18.20;;
34573;SDS011;20809;49.594;8.734;2022-12-18T19:06:45;42.33;;;16.08;;
34573;SDS011;20809;49.594;8.734;2022-12-18T19:09:47;44.85;;;17.80;;
34573;SDS011;20809;49.594;8.734;2022-12-18T19:12:51;39.63;;;18.77;;
34573;SDS011;20809;49.594;8.734;2022-12-18T19:16:10;36.83;;;17.08;;
34573;SDS011;20809;49.594;8.734;2022-12-18T19:19:11;37.60;;;17.50;;
34573;SDS011;20809;49.594;8.734;2022-12-18T19:22:12;39.53;;;17.95;;
34573;SDS011;20809;49.594;8.734;2022-12-18T19:25:13;48.80;;;20.75;;
34573;SDS011;20809;49.594;8.734;2022-12-18T19:28:14;53.42;;;24.52;;
34573;SDS011;20809;49.594;8.734;2022-12-18T19:31:15;49.72;;;23.13;;
34573;SDS011;20809;49.594;8.734;2022-12-18T19:34:17;46.58;;;21.88;;
34573;SDS011;20809;49.594;8.734;2022-12-18T19:37:17;42.50;;;21.48;;
34573;SDS011;20809;49.594;8.734;2022-12-18T19:40:18;58.15;;;24.77;;
34573;SDS011;20809;49.594;8.734;2022-12-18T19:43:19;49.78;;;21.92;;
34573;SDS011;20809;49.594;8.734;2022-12-18T19:46:20;42.80;;;21.80;;
34573;SDS011;20809;49.594;8.734;2022-12-18T19:49:22;53.88;;;23.42;;
34573;SDS011;20809;49.594;8.734;2022-12-18T19:52:22;64.80;;;27.13;;
34573;SDS011;20809;49.594;8.734;2022-12-18T19:55:23;53.60;;;27.27;;
34573;SDS011;20809;49.594;8.734;2022-12-18T19:58:27;58.72;;;28.17;;
34573;SDS011;20809;49.594;8.734;2022-12-18T20:01:28;58.90;;;27.10;;
34573;SDS011;20809;49.594;8.734;2022-12-18T20:07:31;58.17;;;25.83;;
34573;SDS011;20809;49.594;8.734;2022-12-18T20:10:31;51.53;;;25.02;;
34573;SDS011;20809;49.594;8.734;2022-12-18T20:13:32;50.70;;;22.73;;
34573;SDS011;20809;49.594;8.734;2022-12-18T20:16:33;50.28;;;23.48;;
34573;SDS011;20809;49.594;8.734;2022-12-18T20:19:34;46.80;;;22.40;;
34573;SDS011;20809;49.594;8.734;2022-12-18T20:22:34;49.22;;;22.88;;
34573;SDS011;20809;49.594;8.734;2022-12-18T20:25:36;43.70;;;20.65;;
34573;SDS011;20809;49.594;8.734;2022-12-18T20:28:38;47.10;;;21.73;;
34573;SDS011;20809;49.594;8.734;2022-12-18T20:31:39;48.15;;;21.17;;
34573;SDS011;20809;49.594;8.734;2022-12-18T20:34:40;49.33;;;22.65;;